sensor_id;sensor_type;location;lat;lon;timestamp;temperature;humidity
26224;DHT22;14820;48.682;8.890;2023-03-01T00:01:11;-1.70;99.90
26224;DHT22;14820;48.682;8.890;2023-03-01T00:03:37;-1.70;99.90
26224;DHT22;14820;48.682;8.890;2023-03-01T00:06:04;-1.80;99.90
26224;DHT22;14820;48.682;8.890;2023-03-01T00:08:30;-1.90;99.90
26224;DHT22;14820;48.682;8.890;2023-03-01T00:11:15;-1.90;99.90
26224;DHT22;14820;48.682;8.890;2023-03-01T00:13:43;-1.90;99.90
26224;DHT22;14820;48.682;8.890;2023-03-01T00:16:12;-1.90;99.90
26224;DHT22;14820;48.682;8.890;2023-03-01T01:22:05;-2.30;99.90
26224;DHT22;14820;48.682;8.890;2023-03-01T01:24:31;-2.40;99.90
26224;DHT22;14820;48.682;8.890;2023-03-01T01:26:57;-2.40;99.90
26224;DHT22;14820;48.682;8.890;2023-03-01T01:29:23;-2.50;99.90
26224;DHT22;14820;48.682;8.890;2023-03-01T01:31:48;-2.50;99.90
26224;DHT22;14820;48.682;8.890;2023-03-01T01:34:18;-2.50;99.90
26224;DHT22;14820;48.682;8.890;2023-03-01T01:36:46;-2.50;99.90
26224;DHT22;14820;48.682;8.890;2023-03-01T01:39:12;-2.50;99.90
26224;DHT22;14820;48.682;8.890;2023-03-01T01:41:40;-2.40;99.90
26224;DHT22;14820;48.682;8.890;2023-03-01T01:44:14;-2.50;99.90
26224;DHT22;14820;48.682;8.890;2023-03-01T01:52:09;-2.70;99.90
26224;DHT22;14820;48.682;8.890;2023-03-01T01:54:43;-2.70;99.90
26224;DHT22;14820;48.682;8.890;2023-03-01T01:57:43;-2.70;99.90
26224;DHT22;14820;48.682;8.890;2023-03-01T02:00:25;-2.70;99.90
26224;DHT22;14820;48.682;8.890;2023-03-01T02:02:57;-2.80;99.90
26224;DHT22;14820;48.682;8.890;2023-03-01T02:05:38;-2.80;99.90
26224;DHT22;14820;48.682;8.890;2023-03-01T02:08:05;-2.70;99.90
26224;DHT22;14820;48.682;8.890;2023-03-01T02:10:33;-2.70;99.90
26224;DHT22;14820;48.682;8.890;2023-03-01T02:13:00;-2.80;99.90
26224;DHT22;14820;48.682;8.890;2023-03-01T02:15:26;-2.80;99.90
26224;DHT22;14820;48.682;8.890;2023-03-01T02:17:52;-2.90;99.90
26224;DHT22;14820;48.682;8.890;2023-03-01T02:20:24;-2.90;99.90
26224;DHT22;14820;48.682;8.890;2023-03-01T02:22:52;-2.90;99.90
26224;DHT22;14820;48.682;8.890;2023-03-01T02:30:40;-2.90;99.90
26224;DHT22;14820;48.682;8.890;2023-03-01T02:33:26;-3.00;99.90
26224;DHT22;14820;48.682;8.890;2023-03-01T02:35:54;-2.90;99.90
26224;DHT22;14820;48.682;8.890;2023-03-01T02:38:20;-3.00;99.90
26224;DHT22;14820;48.682;8.890;2023-03-01T02:40:49;-3.00;99.90
26224;DHT22;14820;48.682;8.890;2023-03-01T02:43:16;-2.90;99.90
26224;DHT22;14820;48.682;8.890;2023-03-01T02:45:48;-2.80;99.90
26224;DHT22;14820;48.682;8.890;2023-03-01T02:48:15;-2.80;99.90
26224;DHT22;14820;48.682;8.890;2023-03-01T02:53:45;-2.70;99.90
26224;DHT22;14820;48.682;8.890;2023-03-01T02:56:14;-2.70;99.90
26224;DHT22;14820;48.682;8.890;2023-03-01T02:58:43;-2.60;99.90
26224;DHT22;14820;48.682;8.890;2023-03-01T03:01:16;-2.60;99.90
26224;DHT22;14820;48.682;8.890;2023-03-01T03:03:42;-2.50;99.90
26224;DHT22;14820;48.682;8.890;2023-03-01T03:06:09;-2.60;99.90
26224;DHT22;14820;48.682;8.890;2023-03-01T03:08:35;-2.60;99.90
26224;DHT22;14820;48.682;8.890;2023-03-01T03:11:01;-2.60;99.90
26224;DHT22;14820;48.682;8.890;2023-03-01T03:13:27;-2.60;99.90
26224;DHT22;14820;48.682;8.890;2023-03-01T03:15:57;-2.50;99.90
26224;DHT22;14820;48.682;8.890;2023-03-01T03:18:24;-2.50;99.90
26224;DHT22;14820;48.682;8.890;2023-03-01T03:20:52;-2.50;99.90
26224;DHT22;14820;48.682;8.890;2023-03-01T03:23:22;-2.40;99.90
26224;DHT22;14820;48.682;8.890;2023-03-01T03:25:51;-2.30;99.90
26224;DHT22;14820;48.682;8.890;2023-03-01T03:28:17;-2.30;99.90
26224;DHT22;14820;48.682;8.890;2023-03-01T03:30:43;-2.20;99.90
26224;DHT22;14820;48.682;8.890;2023-03-01T03:33:11;-2.20;99.90
26224;DHT22;14820;48.682;8.890;2023-03-01T03:35:47;-2.20;99.90
26224;DHT22;14820;48.682;8.890;2023-03-01T03:38:15;-2.20;99.90
26224;DHT22;14820;48.682;8.890;2023-03-01T03:40:47;-2.10;99.90
26224;DHT22;14820;48.682;8.890;2023-03-01T03:43:16;-2.10;99.90
26224;DHT22;14820;48.682;8.890;2023-03-01T03:45:44;-2.10;99.90
26224;DHT22;14820;48.682;8.890;2023-03-01T03:48:10;-2.10;99.90
26224;DHT22;14820;48.682;8.890;2023-03-01T03:50:38;-2.10;99.90
26224;DHT22;14820;48.682;8.890;2023-03-01T03:53:06;-2.00;99.90
26224;DHT22;14820;48.682;8.890;2023-03-01T03:55:32;-2.00;99.90
26224;DHT22;14820;48.682;8.890;2023-03-01T03:58:01;-2.00;99.90
26224;DHT22;14820;48.682;8.890;2023-03-01T04:00:34;-1.90;99.90
26224;DHT22;14820;48.682;8.890;2023-03-01T04:03:00;-1.90;99.90
26224;DHT22;14820;48.682;8.890;2023-03-01T04:05:27;-1.90;99.90
26224;DHT22;14820;48.682;8.890;2023-03-01T04:07:53;-1.90;99.90
26224;DHT22;14820;48.682;8.890;2023-03-01T04:10:31;-1.80;99.90
26224;DHT22;14820;48.682;8.890;2023-03-01T04:12:58;-1.80;99.90
26224;DHT22;14820;48.682;8.890;2023-03-01T04:15:25;-1.80;99.90
26224;DHT22;14820;48.682;8.890;2023-03-01T04:17:55;-1.70;99.90
26224;DHT22;14820;48.682;8.890;2023-03-01T04:20:23;-1.70;99.90
26224;DHT22;14820;48.682;8.890;2023-03-01T04:22:59;-1.70;99.90
26224;DHT22;14820;48.682;8.890;2023-03-01T04:25:40;-1.70;99.90
26224;DHT22;14820;48.682;8.890;2023-03-01T04:28:06;-1.60;99.90
26224;DHT22;14820;48.682;8.890;2023-03-01T04:30:32;-1.60;99.90
26224;DHT22;14820;48.682;8.890;2023-03-01T04:33:02;-1.60;99.90
26224;DHT22;14820;48.682;8.890;2023-03-01T04:35:29;-1.60;99.90
26224;DHT22;14820;48.682;8.890;2023-03-01T04:37:55;-1.50;99.90
26224;DHT22;14820;48.682;8.890;2023-03-01T04:40:20;-1.50;99.90
26224;DHT22;14820;48.682;8.890;2023-03-01T04:42:46;-1.50;99.90
26224;DHT22;14820;48.682;8.890;2023-03-01T04:45:12;-1.50;99.90
26224;DHT22;14820;48.682;8.890;2023-03-01T04:47:43;-1.50;99.90
26224;DHT22;14820;48.682;8.890;2023-03-01T04:50:10;-1.40;99.90
26224;DHT22;14820;48.682;8.890;2023-03-01T04:52:36;-1.40;99.90
26224;DHT22;14820;48.682;8.890;2023-03-01T04:55:02;-1.40;99.90
26224;DHT22;14820;48.682;8.890;2023-03-01T04:57:29;-1.40;99.90
26224;DHT22;14820;48.682;8.890;2023-03-01T04:59:54;-1.30;99.90
26224;DHT22;14820;48.682;8.890;2023-03-01T05:02:20;-1.30;99.90
26224;DHT22;14820;48.682;8.890;2023-03-01T05:04:46;-1.30;99.90
26224;DHT22;14820;48.682;8.890;2023-03-01T05:07:11;-1.30;99.90
26224;DHT22;14820;48.682;8.890;2023-03-01T05:09:38;-1.20;99.90
26224;DHT22;14820;48.682;8.890;2023-03-01T05:12:04;-1.20;99.90
26224;DHT22;14820;48.682;8.890;2023-03-01T05:14:30;-1.20;99.90
26224;DHT22;14820;48.682;8.890;2023-03-01T05:16:56;-1.20;99.90
26224;DHT22;14820;48.682;8.890;2023-03-01T05:19:29;-1.20;99.90
26224;DHT22;14820;48.682;8.890;2023-03-01T05:21:59;-1.10;99.90
26224;DHT22;14820;48.682;8.890;2023-03-01T05:24:31;-1.10;99.90
26224;DHT22;14820;48.682;8.890;2023-03-01T05:26:58;-1.10;99.90
26224;DHT22;14820;48.682;8.890;2023-03-01T05:29:25;-1.10;99.90
26224;DHT22;14820;48.682;8.890;2023-03-01T05:31:55;-1.10;99.90
26224;DHT22;14820;48.682;8.890;2023-03-01T05:34:29;-1.00;99.90
26224;DHT22;14820;48.682;8.890;2023-03-01T05:36:55;-1.00;99.90
26224;DHT22;14820;48.682;8.890;2023-03-01T05:39:23;-1.00;99.90
26224;DHT22;14820;48.682;8.890;2023-03-01T05:41:53;-1.00;99.90
26224;DHT22;14820;48.682;8.890;2023-03-01T05:44:19;-1.00;99.90
26224;DHT22;14820;48.682;8.890;2023-03-01T05:46:46;-1.00;99.90
26224;DHT22;14820;48.682;8.890;2023-03-01T05:49:12;-1.00;99.90
26224;DHT22;14820;48.682;8.890;2023-03-01T05:51:42;-1.00;99.90
26224;DHT22;14820;48.682;8.890;2023-03-01T05:54:09;-1.00;99.90
26224;DHT22;14820;48.682;8.890;2023-03-01T05:56:35;-0.90;99.90
26224;DHT22;14820;48.682;8.890;2023-03-01T05:59:02;-1.00;99.90
26224;DHT22;14820;48.682;8.890;2023-03-01T06:01:28;-1.00;99.90
26224;DHT22;14820;48.682;8.890;2023-03-01T06:03:55;-1.00;99.90
26224;DHT22;14820;48.682;8.890;2023-03-01T06:06:21;-1.00;99.90
26224;DHT22;14820;48.682;8.890;2023-03-01T06:08:47;-0.90;99.90
26224;DHT22;14820;48.682;8.890;2023-03-01T06:11:12;-0.90;99.90
26224;DHT22;14820;48.682;8.890;2023-03-01T06:13:38;-0.90;99.90
26224;DHT22;14820;48.682;8.890;2023-03-01T06:16:05;-0.90;99.90
26224;DHT22;14820;48.682;8.890;2023-03-01T06:18:32;-0.90;99.90
26224;DHT22;14820;48.682;8.890;2023-03-01T06:20:57;-0.90;99.90
26224;DHT22;14820;48.682;8.890;2023-03-01T06:23:23;-0.90;99.90
26224;DHT22;14820;48.682;8.890;2023-03-01T06:25:49;-0.90;99.90
26224;DHT22;14820;48.682;8.890;2023-03-01T06:28:15;-0.90;99.90
26224;DHT22;14820;48.682;8.890;2023-03-01T06:30:41;-0.80;99.90
26224;DHT22;14820;48.682;8.890;2023-03-01T06:33:06;-0.80;99.90
26224;DHT22;14820;48.682;8.890;2023-03-01T06:35:32;-0.80;99.90
26224;DHT22;14820;48.682;8.890;2023-03-01T06:37:59;-0.80;99.90
26224;DHT22;14820;48.682;8.890;2023-03-01T06:40:25;-0.80;99.90
26224;DHT22;14820;48.682;8.890;2023-03-01T06:42:51;-0.80;99.90
26224;DHT22;14820;48.682;8.890;2023-03-01T06:45:18;-0.80;99.90
26224;DHT22;14820;48.682;8.890;2023-03-01T06:47:45;-0.70;99.90
26224;DHT22;14820;48.682;8.890;2023-03-01T06:50:11;-0.70;99.90
26224;DHT22;14820;48.682;8.890;2023-03-01T06:52:37;-0.70;99.90
26224;DHT22;14820;48.682;8.890;2023-03-01T06:55:04;-0.70;99.90
26224;DHT22;14820;48.682;8.890;2023-03-01T06:57:30;-0.70;99.90
26224;DHT22;14820;48.682;8.890;2023-03-01T06:59:55;-0.70;99.90
26224;DHT22;14820;48.682;8.890;2023-03-01T07:02:21;-0.60;99.90
26224;DHT22;14820;48.682;8.890;2023-03-01T07:04:49;-0.50;99.90
26224;DHT22;14820;48.682;8.890;2023-03-01T07:07:16;-0.60;99.90
26224;DHT22;14820;48.682;8.890;2023-03-01T07:09:47;-0.60;99.90
26224;DHT22;14820;48.682;8.890;2023-03-01T07:12:13;-0.40;99.90
26224;DHT22;14820;48.682;8.890;2023-03-01T07:14:39;-0.40;99.90
26224;DHT22;14820;48.682;8.890;2023-03-01T07:17:05;-0.40;99.90
26224;DHT22;14820;48.682;8.890;2023-03-01T07:19:30;-0.40;99.90
26224;DHT22;14820;48.682;8.890;2023-03-01T07:21:56;-0.30;99.90
26224;DHT22;14820;48.682;8.890;2023-03-01T07:24:22;-0.30;99.90
26224;DHT22;14820;48.682;8.890;2023-03-01T07:26:49;-0.20;99.90
26224;DHT22;14820;48.682;8.890;2023-03-01T07:29:16;-0.20;99.90
26224;DHT22;14820;48.682;8.890;2023-03-01T07:31:42;-0.30;99.90
26224;DHT22;14820;48.682;8.890;2023-03-01T07:34:08;-0.10;99.90
26224;DHT22;14820;48.682;8.890;2023-03-01T07:36:33;0.00;99.90
26224;DHT22;14820;48.682;8.890;2023-03-01T07:38:59;0.00;99.90
26224;DHT22;14820;48.682;8.890;2023-03-01T07:41:27;0.00;99.90
26224;DHT22;14820;48.682;8.890;2023-03-01T07:46:19;0.10;99.90
26224;DHT22;14820;48.682;8.890;2023-03-01T07:48:45;0.10;99.90
26224;DHT22;14820;48.682;8.890;2023-03-01T07:51:11;0.20;99.90
26224;DHT22;14820;48.682;8.890;2023-03-01T07:53:37;0.20;99.90
26224;DHT22;14820;48.682;8.890;2023-03-01T07:56:09;0.20;99.90
26224;DHT22;14820;48.682;8.890;2023-03-01T07:58:37;0.20;99.90
26224;DHT22;14820;48.682;8.890;2023-03-01T08:01:07;0.20;99.90
26224;DHT22;14820;48.682;8.890;2023-03-01T08:03:34;0.40;99.90
26224;DHT22;14820;48.682;8.890;2023-03-01T08:06:01;0.30;99.90
26224;DHT22;14820;48.682;8.890;2023-03-01T08:08:30;0.40;99.90
26224;DHT22;14820;48.682;8.890;2023-03-01T08:11:00;0.50;99.90
26224;DHT22;14820;48.682;8.890;2023-03-01T08:13:26;0.50;99.90
26224;DHT22;14820;48.682;8.890;2023-03-01T08:15:52;0.60;99.90
26224;DHT22;14820;48.682;8.890;2023-03-01T08:18:18;0.60;99.90
26224;DHT22;14820;48.682;8.890;2023-03-01T08:20:44;0.70;99.90
26224;DHT22;14820;48.682;8.890;2023-03-01T08:23:10;0.70;99.90
26224;DHT22;14820;48.682;8.890;2023-03-01T08:25:36;0.80;99.90
26224;DHT22;14820;48.682;8.890;2023-03-01T08:28:02;0.90;99.90
26224;DHT22;14820;48.682;8.890;2023-03-01T08:30:28;1.00;99.90
26224;DHT22;14820;48.682;8.890;2023-03-01T08:35:20;1.00;99.90
26224;DHT22;14820;48.682;8.890;2023-03-01T08:37:46;1.10;99.90
26224;DHT22;14820;48.682;8.890;2023-03-01T08:40:12;1.10;99.90
26224;DHT22;14820;48.682;8.890;2023-03-01T08:42:40;1.10;99.90
26224;DHT22;14820;48.682;8.890;2023-03-01T08:45:07;1.20;99.90
26224;DHT22;14820;48.682;8.890;2023-03-01T08:47:33;1.20;99.90
26224;DHT22;14820;48.682;8.890;2023-03-01T08:49:59;1.30;99.90
26224;DHT22;14820;48.682;8.890;2023-03-01T08:52:26;1.30;99.90
26224;DHT22;14820;48.682;8.890;2023-03-01T08:54:52;1.40;99.90
26224;DHT22;14820;48.682;8.890;2023-03-01T08:57:18;1.40;99.90
26224;DHT22;14820;48.682;8.890;2023-03-01T08:59:43;1.50;99.90
26224;DHT22;14820;48.682;8.890;2023-03-01T09:02:17;1.50;99.90
26224;DHT22;14820;48.682;8.890;2023-03-01T09:07:10;1.70;99.90
26224;DHT22;14820;48.682;8.890;2023-03-01T09:09:36;1.70;99.90
26224;DHT22;14820;48.682;8.890;2023-03-01T09:12:03;1.80;99.90
26224;DHT22;14820;48.682;8.890;2023-03-01T09:14:28;1.80;99.90
26224;DHT22;14820;48.682;8.890;2023-03-01T09:16:54;1.80;99.90
26224;DHT22;14820;48.682;8.890;2023-03-01T09:19:20;1.80;99.90
26224;DHT22;14820;48.682;8.890;2023-03-01T09:21:46;1.90;99.90
26224;DHT22;14820;48.682;8.890;2023-03-01T09:24:22;1.90;99.90
26224;DHT22;14820;48.682;8.890;2023-03-01T09:26:48;2.00;99.90
26224;DHT22;14820;48.682;8.890;2023-03-01T09:29:14;2.10;99.90
26224;DHT22;14820;48.682;8.890;2023-03-01T09:31:41;2.30;99.90
26224;DHT22;14820;48.682;8.890;2023-03-01T09:34:07;2.40;99.90
26224;DHT22;14820;48.682;8.890;2023-03-01T09:36:33;2.50;99.90
26224;DHT22;14820;48.682;8.890;2023-03-01T09:38:59;2.70;99.90
26224;DHT22;14820;48.682;8.890;2023-03-01T09:44:03;2.90;99.90
26224;DHT22;14820;48.682;8.890;2023-03-01T09:46:35;2.90;99.90
26224;DHT22;14820;48.682;8.890;2023-03-01T09:49:12;3.10;99.90
26224;DHT22;14820;48.682;8.890;2023-03-01T09:51:42;3.10;99.90
26224;DHT22;14820;48.682;8.890;2023-03-01T09:54:09;3.10;99.90
26224;DHT22;14820;48.682;8.890;2023-03-01T10:05:01;3.50;99.90
26224;DHT22;14820;48.682;8.890;2023-03-01T10:07:44;3.60;99.90
26224;DHT22;14820;48.682;8.890;2023-03-01T10:10:57;3.60;99.90
26224;DHT22;14820;48.682;8.890;2023-03-01T10:13:38;3.80;99.90
26224;DHT22;14820;48.682;8.890;2023-03-01T10:16:18;3.90;99.90
26224;DHT22;14820;48.682;8.890;2023-03-01T10:18:49;4.00;99.90
26224;DHT22;14820;48.682;8.890;2023-03-01T10:21:18;4.00;99.90
26224;DHT22;14820;48.682;8.890;2023-03-01T10:23:45;4.20;99.90
26224;DHT22;14820;48.682;8.890;2023-03-01T10:26:27;4.30;99.90
26224;DHT22;14820;48.682;8.890;2023-03-01T10:29:05;4.40;99.90
26224;DHT22;14820;48.682;8.890;2023-03-01T10:34:20;4.70;99.90
26224;DHT22;14820;48.682;8.890;2023-03-01T10:36:56;4.70;99.90
26224;DHT22;14820;48.682;8.890;2023-03-01T10:39:25;4.70;99.90
26224;DHT22;14820;48.682;8.890;2023-03-01T10:44:42;5.00;99.90
26224;DHT22;14820;48.682;8.890;2023-03-01T10:47:27;5.00;99.90
26224;DHT22;14820;48.682;8.890;2023-03-01T10:50:01;5.10;99.90
26224;DHT22;14820;48.682;8.890;2023-03-01T10:52:33;5.20;99.90
26224;DHT22;14820;48.682;8.890;2023-03-01T10:55:30;5.20;99.90
26224;DHT22;14820;48.682;8.890;2023-03-01T10:58:09;5.30;99.90
26224;DHT22;14820;48.682;8.890;2023-03-01T11:03:22;5.40;99.90
26224;DHT22;14820;48.682;8.890;2023-03-01T11:06:00;5.50;99.90
26224;DHT22;14820;48.682;8.890;2023-03-01T11:08:35;5.50;99.90
26224;DHT22;14820;48.682;8.890;2023-03-01T11:11:18;5.60;99.90
26224;DHT22;14820;48.682;8.890;2023-03-01T11:13:55;5.50;99.90
26224;DHT22;14820;48.682;8.890;2023-03-01T11:16:35;5.40;99.90
26224;DHT22;14820;48.682;8.890;2023-03-01T11:19:16;5.50;99.90
26224;DHT22;14820;48.682;8.890;2023-03-01T11:21:44;5.80;99.90
26224;DHT22;14820;48.682;8.890;2023-03-01T11:24:13;5.90;99.90
26224;DHT22;14820;48.682;8.890;2023-03-01T11:26:44;5.90;99.90
26224;DHT22;14820;48.682;8.890;2023-03-01T11:29:30;5.90;99.90
26224;DHT22;14820;48.682;8.890;2023-03-01T11:32:01;6.00;99.90
26224;DHT22;14820;48.682;8.890;2023-03-01T11:34:54;6.10;99.90
26224;DHT22;14820;48.682;8.890;2023-03-01T11:37:50;6.10;99.90
26224;DHT22;14820;48.682;8.890;2023-03-01T11:40:29;6.30;99.90
26224;DHT22;14820;48.682;8.890;2023-03-01T11:46:20;6.70;99.90
26224;DHT22;14820;48.682;8.890;2023-03-01T11:55:12;7.10;99.90
26224;DHT22;14820;48.682;8.890;2023-03-01T11:58:01;7.10;99.90
26224;DHT22;14820;48.682;8.890;2023-03-01T12:07:48;7.00;99.90
26224;DHT22;14820;48.682;8.890;2023-03-01T12:12:53;7.10;99.90
26224;DHT22;14820;48.682;8.890;2023-03-01T12:18:30;7.40;99.90
26224;DHT22;14820;48.682;8.890;2023-03-01T12:21:10;7.40;99.90
26224;DHT22;14820;48.682;8.890;2023-03-01T12:32:00;7.60;99.90
26224;DHT22;14820;48.682;8.890;2023-03-01T12:48:29;8.00;99.90
26224;DHT22;14820;48.682;8.890;2023-03-01T12:50:59;8.10;99.90
26224;DHT22;14820;48.682;8.890;2023-03-01T12:53:36;8.10;99.90
26224;DHT22;14820;48.682;8.890;2023-03-01T12:56:10;8.20;99.90
26224;DHT22;14820;48.682;8.890;2023-03-01T12:58:50;8.30;99.90
26224;DHT22;14820;48.682;8.890;2023-03-01T13:04:15;8.40;99.90
26224;DHT22;14820;48.682;8.890;2023-03-01T13:17:48;8.70;99.90
26224;DHT22;14820;48.682;8.890;2023-03-01T13:20:20;8.70;99.90
26224;DHT22;14820;48.682;8.890;2023-03-01T13:22:47;8.70;99.90
26224;DHT22;14820;48.682;8.890;2023-03-01T13:25:16;8.70;99.90
26224;DHT22;14820;48.682;8.890;2023-03-01T13:27:43;8.70;99.90
26224;DHT22;14820;48.682;8.890;2023-03-01T13:35:58;8.90;99.90
26224;DHT22;14820;48.682;8.890;2023-03-01T13:41:09;8.90;99.90
26224;DHT22;14820;48.682;8.890;2023-03-01T13:43:37;9.00;99.90
26224;DHT22;14820;48.682;8.890;2023-03-01T13:46:21;9.10;99.90
26224;DHT22;14820;48.682;8.890;2023-03-01T13:48:51;9.10;99.90
26224;DHT22;14820;48.682;8.890;2023-03-01T13:51:23;9.00;99.90
26224;DHT22;14820;48.682;8.890;2023-03-01T13:53:50;9.10;99.90
26224;DHT22;14820;48.682;8.890;2023-03-01T13:56:25;9.20;99.90
26224;DHT22;14820;48.682;8.890;2023-03-01T14:03:53;9.20;99.90
26224;DHT22;14820;48.682;8.890;2023-03-01T14:06:28;9.40;99.90
26224;DHT22;14820;48.682;8.890;2023-03-01T14:09:10;9.40;99.90
26224;DHT22;14820;48.682;8.890;2023-03-01T14:14:32;9.40;99.90
26224;DHT22;14820;48.682;8.890;2023-03-01T14:19:47;9.40;99.90
26224;DHT22;14820;48.682;8.890;2023-03-01T14:22:43;9.50;99.90
26224;DHT22;14820;48.682;8.890;2023-03-01T14:27:56;9.60;99.20
26224;DHT22;14820;48.682;8.890;2023-03-01T14:30:25;9.50;99.70
26224;DHT22;14820;48.682;8.890;2023-03-01T14:32:58;9.50;99.20
26224;DHT22;14820;48.682;8.890;2023-03-01T14:35:33;9.40;99.50
26224;DHT22;14820;48.682;8.890;2023-03-01T14:37:59;9.40;99.60
26224;DHT22;14820;48.682;8.890;2023-03-01T14:40:31;9.50;99.60
26224;DHT22;14820;48.682;8.890;2023-03-01T14:42:59;9.50;98.90
26224;DHT22;14820;48.682;8.890;2023-03-01T14:45:27;9.30;99.90
26224;DHT22;14820;48.682;8.890;2023-03-01T14:47:54;9.40;99.90
26224;DHT22;14820;48.682;8.890;2023-03-01T14:50:29;9.40;99.90
26224;DHT22;14820;48.682;8.890;2023-03-01T14:53:05;9.50;99.60
26224;DHT22;14820;48.682;8.890;2023-03-01T14:57:57;9.50;99.60
26224;DHT22;14820;48.682;8.890;2023-03-01T15:00:28;9.60;99.60
26224;DHT22;14820;48.682;8.890;2023-03-01T15:03:07;9.50;99.70
26224;DHT22;14820;48.682;8.890;2023-03-01T15:05:35;9.40;99.00
26224;DHT22;14820;48.682;8.890;2023-03-01T15:08:03;9.40;99.90
26224;DHT22;14820;48.682;8.890;2023-03-01T15:10:32;9.30;99.40
26224;DHT22;14820;48.682;8.890;2023-03-01T15:13:14;9.20;99.80
26224;DHT22;14820;48.682;8.890;2023-03-01T15:15:47;9.20;99.90
26224;DHT22;14820;48.682;8.890;2023-03-01T15:20:43;9.10;99.90
26224;DHT22;14820;48.682;8.890;2023-03-01T15:23:22;9.00;99.20
26224;DHT22;14820;48.682;8.890;2023-03-01T15:25:49;8.90;99.60
26224;DHT22;14820;48.682;8.890;2023-03-01T15:28:33;8.80;99.20
26224;DHT22;14820;48.682;8.890;2023-03-01T15:31:23;8.80;99.90
26224;DHT22;14820;48.682;8.890;2023-03-01T15:33:49;8.90;99.70
26224;DHT22;14820;48.682;8.890;2023-03-01T15:36:44;8.90;99.90
26224;DHT22;14820;48.682;8.890;2023-03-01T15:39:35;8.80;99.90
26224;DHT22;14820;48.682;8.890;2023-03-01T15:42:09;8.70;99.90
26224;DHT22;14820;48.682;8.890;2023-03-01T15:44:38;8.70;99.90
26224;DHT22;14820;48.682;8.890;2023-03-01T15:47:30;8.60;99.90
26224;DHT22;14820;48.682;8.890;2023-03-01T15:49:56;8.60;99.90
26224;DHT22;14820;48.682;8.890;2023-03-01T15:52:35;8.50;99.90
26224;DHT22;14820;48.682;8.890;2023-03-01T15:55:12;8.40;99.90
26224;DHT22;14820;48.682;8.890;2023-03-01T15:57:39;8.30;99.90
26224;DHT22;14820;48.682;8.890;2023-03-01T16:00:05;8.20;99.90
26224;DHT22;14820;48.682;8.890;2023-03-01T16:02:37;8.20;99.90
26224;DHT22;14820;48.682;8.890;2023-03-01T16:05:04;8.10;99.90
26224;DHT22;14820;48.682;8.890;2023-03-01T16:07:29;8.10;99.90
26224;DHT22;14820;48.682;8.890;2023-03-01T16:09:57;8.10;99.90
26224;DHT22;14820;48.682;8.890;2023-03-01T16:12:23;8.00;99.90
26224;DHT22;14820;48.682;8.890;2023-03-01T16:14:50;7.90;99.90
26224;DHT22;14820;48.682;8.890;2023-03-01T16:17:15;7.90;99.90
26224;DHT22;14820;48.682;8.890;2023-03-01T16:19:41;7.80;99.90
26224;DHT22;14820;48.682;8.890;2023-03-01T16:22:09;7.80;99.90
26224;DHT22;14820;48.682;8.890;2023-03-01T16:24:35;7.80;99.90
26224;DHT22;14820;48.682;8.890;2023-03-01T16:27:01;7.80;99.90
26224;DHT22;14820;48.682;8.890;2023-03-01T16:29:27;7.70;99.90
26224;DHT22;14820;48.682;8.890;2023-03-01T16:31:54;7.60;99.90
26224;DHT22;14820;48.682;8.890;2023-03-01T16:34:20;7.60;99.90
26224;DHT22;14820;48.682;8.890;2023-03-01T16:36:47;7.50;99.90
26224;DHT22;14820;48.682;8.890;2023-03-01T16:39:13;7.40;99.90
26224;DHT22;14820;48.682;8.890;2023-03-01T16:41:38;7.30;99.90
26224;DHT22;14820;48.682;8.890;2023-03-01T16:44:04;7.30;99.90
26224;DHT22;14820;48.682;8.890;2023-03-01T16:46:30;7.20;99.90
26224;DHT22;14820;48.682;8.890;2023-03-01T16:48:56;7.10;99.90
26224;DHT22;14820;48.682;8.890;2023-03-01T16:51:22;7.00;99.90
26224;DHT22;14820;48.682;8.890;2023-03-01T16:53:49;6.90;99.90
26224;DHT22;14820;48.682;8.890;2023-03-01T16:56:15;6.80;99.90
26224;DHT22;14820;48.682;8.890;2023-03-01T16:58:42;6.70;99.90
26224;DHT22;14820;48.682;8.890;2023-03-01T17:01:13;6.60;99.90
26224;DHT22;14820;48.682;8.890;2023-03-01T17:03:41;6.50;99.90
26224;DHT22;14820;48.682;8.890;2023-03-01T17:06:14;6.30;99.90
26224;DHT22;14820;48.682;8.890;2023-03-01T17:08:40;6.30;99.90
26224;DHT22;14820;48.682;8.890;2023-03-01T17:11:08;6.20;99.90
26224;DHT22;14820;48.682;8.890;2023-03-01T17:13:35;6.20;99.90
26224;DHT22;14820;48.682;8.890;2023-03-01T17:16:06;6.10;99.90
26224;DHT22;14820;48.682;8.890;2023-03-01T17:18:33;6.00;99.90
26224;DHT22;14820;48.682;8.890;2023-03-01T17:20:59;6.00;99.90
26224;DHT22;14820;48.682;8.890;2023-03-01T17:23:25;5.90;99.90
26224;DHT22;14820;48.682;8.890;2023-03-01T17:25:52;5.80;99.90
26224;DHT22;14820;48.682;8.890;2023-03-01T17:28:24;5.70;99.90
26224;DHT22;14820;48.682;8.890;2023-03-01T17:30:50;5.60;99.90
26224;DHT22;14820;48.682;8.890;2023-03-01T17:33:17;5.60;99.90
26224;DHT22;14820;48.682;8.890;2023-03-01T17:35:43;5.50;99.90
26224;DHT22;14820;48.682;8.890;2023-03-01T17:38:15;5.50;99.90
26224;DHT22;14820;48.682;8.890;2023-03-01T17:40:41;5.40;99.90
26224;DHT22;14820;48.682;8.890;2023-03-01T17:43:08;5.40;99.90
26224;DHT22;14820;48.682;8.890;2023-03-01T17:45:36;5.30;99.90
26224;DHT22;14820;48.682;8.890;2023-03-01T17:48:03;5.30;99.90
26224;DHT22;14820;48.682;8.890;2023-03-01T17:50:28;5.20;99.90
26224;DHT22;14820;48.682;8.890;2023-03-01T17:52:54;5.20;99.90
26224;DHT22;14820;48.682;8.890;2023-03-01T17:55:20;5.10;99.90
26224;DHT22;14820;48.682;8.890;2023-03-01T17:57:46;5.10;99.90
26224;DHT22;14820;48.682;8.890;2023-03-01T18:00:13;5.10;99.90
26224;DHT22;14820;48.682;8.890;2023-03-01T18:02:40;5.00;99.90
26224;DHT22;14820;48.682;8.890;2023-03-01T18:05:06;5.00;99.90
26224;DHT22;14820;48.682;8.890;2023-03-01T18:07:32;5.00;99.90
26224;DHT22;14820;48.682;8.890;2023-03-01T18:09:58;4.90;99.90
26224;DHT22;14820;48.682;8.890;2023-03-01T18:12:23;4.90;99.90
26224;DHT22;14820;48.682;8.890;2023-03-01T18:14:49;4.80;99.90
26224;DHT22;14820;48.682;8.890;2023-03-01T18:17:22;4.80;99.90
26224;DHT22;14820;48.682;8.890;2023-03-01T18:19:47;4.70;99.90
26224;DHT22;14820;48.682;8.890;2023-03-01T18:22:13;4.60;99.90
26224;DHT22;14820;48.682;8.890;2023-03-01T18:24:40;4.60;99.90
26224;DHT22;14820;48.682;8.890;2023-03-01T18:27:06;4.60;99.90
26224;DHT22;14820;48.682;8.890;2023-03-01T18:29:31;4.60;99.90
26224;DHT22;14820;48.682;8.890;2023-03-01T18:31:57;4.50;99.90
26224;DHT22;14820;48.682;8.890;2023-03-01T18:34:23;4.50;99.90
26224;DHT22;14820;48.682;8.890;2023-03-01T18:36:49;4.50;99.90
26224;DHT22;14820;48.682;8.890;2023-03-01T18:39:18;4.40;99.90
26224;DHT22;14820;48.682;8.890;2023-03-01T18:41:45;4.40;99.90
26224;DHT22;14820;48.682;8.890;2023-03-01T18:44:10;4.30;99.90
26224;DHT22;14820;48.682;8.890;2023-03-01T18:46:36;4.30;99.90
26224;DHT22;14820;48.682;8.890;2023-03-01T18:49:04;4.30;99.90
26224;DHT22;14820;48.682;8.890;2023-03-01T18:51:30;4.20;99.90
26224;DHT22;14820;48.682;8.890;2023-03-01T18:53:57;4.20;99.90
26224;DHT22;14820;48.682;8.890;2023-03-01T18:56:23;4.20;99.90
26224;DHT22;14820;48.682;8.890;2023-03-01T18:58:49;4.10;99.90
26224;DHT22;14820;48.682;8.890;2023-03-01T19:01:22;4.00;99.90
26224;DHT22;14820;48.682;8.890;2023-03-01T19:03:48;4.00;99.90